Pagina principale
METAR-TAF:

METAR-TAF

Aeroporti :

Aeroporto di Rivolto

Udine, Italia

latitudine: 45-59N, longitudine: 013-02E, altezza: 51 m

METAR: mancante

Ora: 00:39 (22:39 UTC)

Previsione

Il bollettino è stato emesso 29 ore e 39 minuti fa, alle 17:00 UTC
Previsione valida dal 14 alle 18 UTC al 15 alle 03 UTC
Vento 5 kt da direzioni variabili
Visibilità 10 km o più
Nubi sparse ad un'altezza di 3000 ft
Nuvoloso ad un'altezza di 8000 ft
Temporaneamente
dal 14 alle 18 UTC al 15 alle 03 UTC
Visibilità: 5000 m
Nubi sparse ad un'altezza di 2000 ft
Nuvoloso ad un'altezza di 5000 ft
pioggia, foschia
Probabilità 30% :
Temporaneamente
dal 14 alle 18 UTC al 14 alle 21 UTC
Visibilità: 3000 m
Poco nuvoloso ad un'altezza di 1000 ft, Cumulonembo.
Nuvoloso ad un'altezza di 2500 ft
temporale, pioggia

TAF: LIPI 141700Z 1418/1503 VRB05KT 9999 SCT030 BKN080 TEMPO 1418/1503 5000 RA BR SCT020 BKN050 PROB30 TEMPO 1418/1421 3000 TSRA FEW010CB BKN025

Osservazioni e previsioni meteorologiche di più di 4000 aeroporti (messaggi METAR e TAF).

Le stazioni disponibili sono rappresentate dai dischi gialli e rossi sulla carta.

Puntare il mouse per vedere il nome della stazione.

Clicca sopra per visualizzare le osservazioni e previsioni meteorologiche.

Per cambiare la mappa : fare clic sui pulsanti verdi con una croce nera per ingrandire, il pulsante verde con un trattino per diminuire, o sulla freccia verde per le mappe adiacenti.


METAR-TAF: